sensor_id;sensor_type;location;lat;lon;timestamp;P1;durP1;ratioP1;P2;durP2;ratioP2
10458;SDS011;5277;48.722;8.736;2023-01-15T00:03:43;2.90;;;0.88;;
10458;SDS011;5277;48.722;8.736;2023-01-15T00:06:08;1.20;;;0.68;;
10458;SDS011;5277;48.722;8.736;2023-01-15T00:08:34;2.75;;;0.70;;
10458;SDS011;5277;48.722;8.736;2023-01-15T00:11:02;0.70;;;0.60;;
10458;SDS011;5277;48.722;8.736;2023-01-15T00:13:28;2.95;;;0.73;;
10458;SDS011;5277;48.722;8.736;2023-01-15T00:15:54;1.35;;;0.70;;
10458;SDS011;5277;48.722;8.736;2023-01-15T00:18:30;1.50;;;0.70;;
10458;SDS011;5277;48.722;8.736;2023-01-15T00:21:02;1.05;;;0.70;;
10458;SDS011;5277;48.722;8.736;2023-01-15T00:23:33;1.15;;;0.73;;
10458;SDS011;5277;48.722;8.736;2023-01-15T00:26:19;1.73;;;0.70;;
10458;SDS011;5277;48.722;8.736;2023-01-15T00:29:05;2.50;;;0.75;;
10458;SDS011;5277;48.722;8.736;2023-01-15T00:31:31;0.90;;;0.70;;
10458;SDS011;5277;48.722;8.736;2023-01-15T00:33:59;1.42;;;0.47;;
10458;SDS011;5277;48.722;8.736;2023-01-15T00:36:25;1.10;;;0.80;;
10458;SDS011;5277;48.722;8.736;2023-01-15T00:38:51;1.95;;;0.50;;
10458;SDS011;5277;48.722;8.736;2023-01-15T00:41:16;1.08;;;0.50;;
10458;SDS011;5277;48.722;8.736;2023-01-15T00:43:42;1.13;;;0.50;;
10458;SDS011;5277;48.722;8.736;2023-01-15T00:46:08;1.67;;;0.65;;
10458;SDS011;5277;48.722;8.736;2023-01-15T00:48:34;2.25;;;0.50;;
10458;SDS011;5277;48.722;8.736;2023-01-15T00:51:00;1.73;;;0.68;;
10458;SDS011;5277;48.722;8.736;2023-01-15T00:53:27;1.60;;;0.60;;
10458;SDS011;5277;48.722;8.736;2023-01-15T00:55:52;0.73;;;0.43;;
10458;SDS011;5277;48.722;8.736;2023-01-15T00:58:18;0.85;;;0.60;;
10458;SDS011;5277;48.722;8.736;2023-01-15T01:00:44;0.73;;;0.40;;
10458;SDS011;5277;48.722;8.736;2023-01-15T01:03:09;0.93;;;0.60;;
10458;SDS011;5277;48.722;8.736;2023-01-15T01:05:35;4.53;;;0.60;;
10458;SDS011;5277;48.722;8.736;2023-01-15T01:08:01;0.90;;;0.68;;
10458;SDS011;5277;48.722;8.736;2023-01-15T01:10:26;0.65;;;0.60;;
10458;SDS011;5277;48.722;8.736;2023-01-15T01:12:52;2.55;;;0.75;;
10458;SDS011;5277;48.722;8.736;2023-01-15T01:15:19;1.65;;;0.85;;
10458;SDS011;5277;48.722;8.736;2023-01-15T01:17:45;2.78;;;0.75;;
10458;SDS011;5277;48.722;8.736;2023-01-15T01:20:11;1.60;;;0.60;;
10458;SDS011;5277;48.722;8.736;2023-01-15T01:22:38;0.70;;;0.60;;
10458;SDS011;5277;48.722;8.736;2023-01-15T01:25:03;1.05;;;0.60;;
10458;SDS011;5277;48.722;8.736;2023-01-15T01:27:29;0.52;;;0.30;;
10458;SDS011;5277;48.722;8.736;2023-01-15T01:29:55;0.50;;;0.50;;
10458;SDS011;5277;48.722;8.736;2023-01-15T01:32:20;2.20;;;0.70;;
10458;SDS011;5277;48.722;8.736;2023-01-15T01:34:46;1.73;;;0.50;;
10458;SDS011;5277;48.722;8.736;2023-01-15T01:37:11;1.85;;;0.40;;
10458;SDS011;5277;48.722;8.736;2023-01-15T01:39:37;0.30;;;0.30;;
10458;SDS011;5277;48.722;8.736;2023-01-15T01:42:03;0.68;;;0.40;;
10458;SDS011;5277;48.722;8.736;2023-01-15T01:46:59;0.50;;;0.30;;
10458;SDS011;5277;48.722;8.736;2023-01-15T01:49:27;0.82;;;0.57;;
10458;SDS011;5277;48.722;8.736;2023-01-15T01:51:55;0.85;;;0.30;;
10458;SDS011;5277;48.722;8.736;2023-01-15T01:54:45;1.23;;;0.30;;
10458;SDS011;5277;48.722;8.736;2023-01-15T01:57:12;0.20;;;0.20;;
10458;SDS011;5277;48.722;8.736;2023-01-15T01:59:39;3.00;;;0.40;;
10458;SDS011;5277;48.722;8.736;2023-01-15T02:02:05;0.22;;;0.20;;
10458;SDS011;5277;48.722;8.736;2023-01-15T02:04:31;0.28;;;0.20;;
10458;SDS011;5277;48.722;8.736;2023-01-15T02:06:58;0.38;;;0.32;;
10458;SDS011;5277;48.722;8.736;2023-01-15T02:09:25;0.30;;;0.25;;
10458;SDS011;5277;48.722;8.736;2023-01-15T02:11:51;0.30;;;0.30;;
10458;SDS011;5277;48.722;8.736;2023-01-15T02:14:23;0.55;;;0.32;;
10458;SDS011;5277;48.722;8.736;2023-01-15T02:17:04;0.30;;;0.28;;
10458;SDS011;5277;48.722;8.736;2023-01-15T02:24:55;2.75;;;0.47;;
10458;SDS011;5277;48.722;8.736;2023-01-15T02:27:38;0.75;;;0.32;;
10458;SDS011;5277;48.722;8.736;2023-01-15T02:30:12;0.98;;;0.28;;
10458;SDS011;5277;48.722;8.736;2023-01-15T02:32:51;0.80;;;0.40;;
10458;SDS011;5277;48.722;8.736;2023-01-15T02:37:54;2.45;;;0.88;;
10458;SDS011;5277;48.722;8.736;2023-01-15T02:40:25;0.45;;;0.20;;
10458;SDS011;5277;48.722;8.736;2023-01-15T02:42:52;0.80;;;0.32;;
10458;SDS011;5277;48.722;8.736;2023-01-15T02:45:21;2.55;;;0.30;;
10458;SDS011;5277;48.722;8.736;2023-01-15T02:47:53;1.85;;;0.30;;
10458;SDS011;5277;48.722;8.736;2023-01-15T02:50:23;0.35;;;0.35;;
10458;SDS011;5277;48.722;8.736;2023-01-15T02:52:53;1.85;;;0.40;;
10458;SDS011;5277;48.722;8.736;2023-01-15T02:55:32;6.10;;;0.55;;
10458;SDS011;5277;48.722;8.736;2023-01-15T02:58:03;0.77;;;0.38;;
10458;SDS011;5277;48.722;8.736;2023-01-15T03:00:32;0.57;;;0.40;;
10458;SDS011;5277;48.722;8.736;2023-01-15T03:03:06;3.42;;;0.63;;
10458;SDS011;5277;48.722;8.736;2023-01-15T03:05:59;3.72;;;0.85;;
10458;SDS011;5277;48.722;8.736;2023-01-15T03:08:33;2.05;;;0.30;;
10458;SDS011;5277;48.722;8.736;2023-01-15T03:11:07;0.85;;;0.30;;
10458;SDS011;5277;48.722;8.736;2023-01-15T03:24:28;1.23;;;0.50;;
10458;SDS011;5277;48.722;8.736;2023-01-15T03:26:58;1.15;;;0.30;;
10458;SDS011;5277;48.722;8.736;2023-01-15T03:29:26;1.15;;;0.30;;
10458;SDS011;5277;48.722;8.736;2023-01-15T03:31:55;1.25;;;0.30;;
10458;SDS011;5277;48.722;8.736;2023-01-15T03:34:23;0.75;;;0.50;;
10458;SDS011;5277;48.722;8.736;2023-01-15T03:36:53;3.90;;;0.52;;
10458;SDS011;5277;48.722;8.736;2023-01-15T03:39:18;1.25;;;0.85;;
10458;SDS011;5277;48.722;8.736;2023-01-15T03:44:39;1.05;;;0.30;;
10458;SDS011;5277;48.722;8.736;2023-01-15T03:47:29;3.42;;;0.38;;
10458;SDS011;5277;48.722;8.736;2023-01-15T03:55:24;1.15;;;0.20;;
10458;SDS011;5277;48.722;8.736;2023-01-15T04:01:02;1.88;;;0.40;;
10458;SDS011;5277;48.722;8.736;2023-01-15T04:03:31;0.45;;;0.40;;
10458;SDS011;5277;48.722;8.736;2023-01-15T04:05:58;0.85;;;0.30;;
10458;SDS011;5277;48.722;8.736;2023-01-15T04:08:26;0.40;;;0.30;;
10458;SDS011;5277;48.722;8.736;2023-01-15T04:10:59;1.02;;;0.60;;
10458;SDS011;5277;48.722;8.736;2023-01-15T04:13:25;3.58;;;0.40;;
10458;SDS011;5277;48.722;8.736;2023-01-15T04:15:51;0.30;;;0.30;;
10458;SDS011;5277;48.722;8.736;2023-01-15T04:18:18;1.02;;;0.57;;
10458;SDS011;5277;48.722;8.736;2023-01-15T04:20:44;0.77;;;0.40;;
10458;SDS011;5277;48.722;8.736;2023-01-15T04:23:10;0.32;;;0.30;;
10458;SDS011;5277;48.722;8.736;2023-01-15T04:25:36;3.17;;;0.45;;
10458;SDS011;5277;48.722;8.736;2023-01-15T04:28:02;0.20;;;0.20;;
10458;SDS011;5277;48.722;8.736;2023-01-15T04:30:27;2.88;;;0.30;;
10458;SDS011;5277;48.722;8.736;2023-01-15T04:32:53;2.08;;;0.30;;
10458;SDS011;5277;48.722;8.736;2023-01-15T04:35:18;1.17;;;0.40;;
10458;SDS011;5277;48.722;8.736;2023-01-15T04:37:45;0.85;;;0.30;;
10458;SDS011;5277;48.722;8.736;2023-01-15T04:40:11;0.63;;;0.30;;
10458;SDS011;5277;48.722;8.736;2023-01-15T04:42:57;0.88;;;0.38;;
10458;SDS011;5277;48.722;8.736;2023-01-15T04:45:42;0.30;;;0.30;;
10458;SDS011;5277;48.722;8.736;2023-01-15T04:48:08;1.17;;;0.30;;
10458;SDS011;5277;48.722;8.736;2023-01-15T04:50:34;0.60;;;0.30;;
10458;SDS011;5277;48.722;8.736;2023-01-15T04:53:00;0.30;;;0.20;;
10458;SDS011;5277;48.722;8.736;2023-01-15T04:55:25;2.40;;;0.30;;
10458;SDS011;5277;48.722;8.736;2023-01-15T04:57:51;0.68;;;0.30;;
10458;SDS011;5277;48.722;8.736;2023-01-15T05:00:17;3.22;;;0.30;;
10458;SDS011;5277;48.722;8.736;2023-01-15T05:02:43;3.65;;;0.60;;
10458;SDS011;5277;48.722;8.736;2023-01-15T05:05:08;2.15;;;0.57;;
10458;SDS011;5277;48.722;8.736;2023-01-15T05:07:34;2.78;;;0.52;;
10458;SDS011;5277;48.722;8.736;2023-01-15T05:09:59;0.40;;;0.35;;
10458;SDS011;5277;48.722;8.736;2023-01-15T05:12:25;0.45;;;0.30;;
10458;SDS011;5277;48.722;8.736;2023-01-15T05:14:51;0.52;;;0.22;;
10458;SDS011;5277;48.722;8.736;2023-01-15T05:17:16;0.13;;;0.13;;
10458;SDS011;5277;48.722;8.736;2023-01-15T05:19:42;1.27;;;0.17;;
10458;SDS011;5277;48.722;8.736;2023-01-15T05:22:08;0.10;;;0.10;;
10458;SDS011;5277;48.722;8.736;2023-01-15T05:24:33;0.00;;;0.00;;
10458;SDS011;5277;48.722;8.736;2023-01-15T05:26:59;0.13;;;0.13;;
10458;SDS011;5277;48.722;8.736;2023-01-15T05:29:25;0.03;;;0.03;;
10458;SDS011;5277;48.722;8.736;2023-01-15T05:31:50;0.10;;;0.10;;
10458;SDS011;5277;48.722;8.736;2023-01-15T05:34:16;0.00;;;0.00;;
10458;SDS011;5277;48.722;8.736;2023-01-15T05:36:42;0.10;;;0.03;;
10458;SDS011;5277;48.722;8.736;2023-01-15T05:39:08;0.00;;;0.00;;
10458;SDS011;5277;48.722;8.736;2023-01-15T05:41:33;1.35;;;0.20;;
10458;SDS011;5277;48.722;8.736;2023-01-15T05:44:18;0.03;;;0.03;;
10458;SDS011;5277;48.722;8.736;2023-01-15T05:46:44;1.27;;;0.10;;
10458;SDS011;5277;48.722;8.736;2023-01-15T05:49:12;0.10;;;0.10;;
10458;SDS011;5277;48.722;8.736;2023-01-15T05:51:40;0.10;;;0.10;;
10458;SDS011;5277;48.722;8.736;2023-01-15T05:54:06;0.25;;;0.20;;
10458;SDS011;5277;48.722;8.736;2023-01-15T05:56:35;0.10;;;0.03;;
10458;SDS011;5277;48.722;8.736;2023-01-15T05:59:01;2.97;;;0.20;;
10458;SDS011;5277;48.722;8.736;2023-01-15T06:01:27;0.90;;;0.20;;
10458;SDS011;5277;48.722;8.736;2023-01-15T06:03:55;0.95;;;0.10;;
10458;SDS011;5277;48.722;8.736;2023-01-15T06:06:28;2.63;;;0.20;;
10458;SDS011;5277;48.722;8.736;2023-01-15T06:08:57;0.10;;;0.10;;
10458;SDS011;5277;48.722;8.736;2023-01-15T06:11:23;0.20;;;0.10;;
10458;SDS011;5277;48.722;8.736;2023-01-15T06:13:49;1.90;;;0.25;;
10458;SDS011;5277;48.722;8.736;2023-01-15T06:16:18;0.22;;;0.10;;
10458;SDS011;5277;48.722;8.736;2023-01-15T06:18:47;0.20;;;0.20;;
10458;SDS011;5277;48.722;8.736;2023-01-15T06:21:18;0.35;;;0.10;;
10458;SDS011;5277;48.722;8.736;2023-01-15T06:23:45;0.20;;;0.20;;
10458;SDS011;5277;48.722;8.736;2023-01-15T06:26:14;3.92;;;0.52;;
10458;SDS011;5277;48.722;8.736;2023-01-15T06:28:44;0.10;;;0.10;;
10458;SDS011;5277;48.722;8.736;2023-01-15T06:31:15;0.52;;;0.08;;
10458;SDS011;5277;48.722;8.736;2023-01-15T06:33:45;0.98;;;0.28;;
10458;SDS011;5277;48.722;8.736;2023-01-15T06:36:15;6.13;;;0.68;;
10458;SDS011;5277;48.722;8.736;2023-01-15T06:38:46;0.10;;;0.08;;
10458;SDS011;5277;48.722;8.736;2023-01-15T06:41:18;0.10;;;0.10;;
10458;SDS011;5277;48.722;8.736;2023-01-15T06:44:05;0.20;;;0.20;;
10458;SDS011;5277;48.722;8.736;2023-01-15T06:46:52;0.10;;;0.10;;
10458;SDS011;5277;48.722;8.736;2023-01-15T06:49:37;2.55;;;0.30;;
10458;SDS011;5277;48.722;8.736;2023-01-15T06:52:03;1.85;;;0.13;;
10458;SDS011;5277;48.722;8.736;2023-01-15T06:54:30;1.20;;;0.20;;
10458;SDS011;5277;48.722;8.736;2023-01-15T06:56:55;0.25;;;0.17;;
10458;SDS011;5277;48.722;8.736;2023-01-15T06:59:21;0.28;;;0.10;;
10458;SDS011;5277;48.722;8.736;2023-01-15T07:01:46;0.63;;;0.60;;
10458;SDS011;5277;48.722;8.736;2023-01-15T07:04:12;0.20;;;0.20;;
10458;SDS011;5277;48.722;8.736;2023-01-15T07:06:38;0.20;;;0.20;;
10458;SDS011;5277;48.722;8.736;2023-01-15T07:09:04;0.20;;;0.20;;
10458;SDS011;5277;48.722;8.736;2023-01-15T07:11:29;0.55;;;0.30;;
10458;SDS011;5277;48.722;8.736;2023-01-15T07:13:55;1.27;;;0.38;;
10458;SDS011;5277;48.722;8.736;2023-01-15T07:16:33;0.30;;;0.30;;
10458;SDS011;5277;48.722;8.736;2023-01-15T07:19:00;1.52;;;0.15;;
10458;SDS011;5277;48.722;8.736;2023-01-15T07:21:26;0.20;;;0.20;;
10458;SDS011;5277;48.722;8.736;2023-01-15T07:23:52;0.05;;;0.05;;
10458;SDS011;5277;48.722;8.736;2023-01-15T07:26:18;0.93;;;0.30;;
10458;SDS011;5277;48.722;8.736;2023-01-15T07:28:44;0.20;;;0.20;;
10458;SDS011;5277;48.722;8.736;2023-01-15T07:31:09;0.10;;;0.10;;
10458;SDS011;5277;48.722;8.736;2023-01-15T07:33:35;0.30;;;0.30;;
10458;SDS011;5277;48.722;8.736;2023-01-15T07:36:01;0.40;;;0.22;;
10458;SDS011;5277;48.722;8.736;2023-01-15T07:38:27;0.40;;;0.17;;
10458;SDS011;5277;48.722;8.736;2023-01-15T07:40:56;0.15;;;0.15;;
10458;SDS011;5277;48.722;8.736;2023-01-15T07:43:41;0.80;;;0.30;;
10458;SDS011;5277;48.722;8.736;2023-01-15T07:46:25;0.20;;;0.20;;
10458;SDS011;5277;48.722;8.736;2023-01-15T07:49:09;0.55;;;0.17;;
10458;SDS011;5277;48.722;8.736;2023-01-15T07:51:54;2.23;;;1.03;;
10458;SDS011;5277;48.722;8.736;2023-01-15T07:54:20;0.65;;;0.55;;
10458;SDS011;5277;48.722;8.736;2023-01-15T07:56:45;4.18;;;2.17;;
10458;SDS011;5277;48.722;8.736;2023-01-15T07:59:11;1.75;;;0.90;;
10458;SDS011;5277;48.722;8.736;2023-01-15T08:01:37;2.63;;;1.10;;
10458;SDS011;5277;48.722;8.736;2023-01-15T08:04:02;0.60;;;0.50;;
10458;SDS011;5277;48.722;8.736;2023-01-15T08:06:28;0.63;;;0.40;;
10458;SDS011;5277;48.722;8.736;2023-01-15T08:08:53;0.30;;;0.30;;
10458;SDS011;5277;48.722;8.736;2023-01-15T08:11:19;0.55;;;0.47;;
10458;SDS011;5277;48.722;8.736;2023-01-15T08:14:03;7.05;;;2.03;;
10458;SDS011;5277;48.722;8.736;2023-01-15T08:16:47;7.22;;;3.08;;
10458;SDS011;5277;48.722;8.736;2023-01-15T08:19:13;5.05;;;1.85;;
10458;SDS011;5277;48.722;8.736;2023-01-15T08:21:38;4.32;;;1.20;;
10458;SDS011;5277;48.722;8.736;2023-01-15T08:24:04;2.28;;;1.10;;
10458;SDS011;5277;48.722;8.736;2023-01-15T08:26:30;2.00;;;0.82;;
10458;SDS011;5277;48.722;8.736;2023-01-15T08:28:55;2.28;;;1.40;;
10458;SDS011;5277;48.722;8.736;2023-01-15T08:31:21;4.88;;;2.10;;
10458;SDS011;5277;48.722;8.736;2023-01-15T08:33:47;2.33;;;1.20;;
10458;SDS011;5277;48.722;8.736;2023-01-15T08:36:12;3.97;;;2.33;;
10458;SDS011;5277;48.722;8.736;2023-01-15T08:38:39;0.70;;;0.60;;
10458;SDS011;5277;48.722;8.736;2023-01-15T08:41:05;1.52;;;0.60;;
10458;SDS011;5277;48.722;8.736;2023-01-15T08:43:31;0.93;;;0.65;;
10458;SDS011;5277;48.722;8.736;2023-01-15T08:45:58;1.50;;;0.85;;
10458;SDS011;5277;48.722;8.736;2023-01-15T08:48:25;1.85;;;0.63;;
10458;SDS011;5277;48.722;8.736;2023-01-15T08:50:51;1.10;;;0.77;;
10458;SDS011;5277;48.722;8.736;2023-01-15T08:53:17;1.60;;;0.40;;
10458;SDS011;5277;48.722;8.736;2023-01-15T08:55:43;0.40;;;0.40;;
10458;SDS011;5277;48.722;8.736;2023-01-15T08:58:10;0.47;;;0.40;;
10458;SDS011;5277;48.722;8.736;2023-01-15T09:00:35;2.15;;;0.57;;
10458;SDS011;5277;48.722;8.736;2023-01-15T09:03:01;0.68;;;0.40;;
10458;SDS011;5277;48.722;8.736;2023-01-15T09:05:27;2.35;;;0.52;;
10458;SDS011;5277;48.722;8.736;2023-01-15T09:07:53;2.03;;;0.50;;
10458;SDS011;5277;48.722;8.736;2023-01-15T09:10:19;1.20;;;0.50;;
10458;SDS011;5277;48.722;8.736;2023-01-15T09:12:45;0.70;;;0.33;;
10458;SDS011;5277;48.722;8.736;2023-01-15T09:15:11;2.90;;;0.47;;
10458;SDS011;5277;48.722;8.736;2023-01-15T09:17:36;2.47;;;0.45;;
10458;SDS011;5277;48.722;8.736;2023-01-15T09:20:05;0.75;;;0.30;;
10458;SDS011;5277;48.722;8.736;2023-01-15T09:22:32;0.40;;;0.40;;
10458;SDS011;5277;48.722;8.736;2023-01-15T09:24:58;1.77;;;0.50;;
10458;SDS011;5277;48.722;8.736;2023-01-15T09:27:24;0.40;;;0.40;;
10458;SDS011;5277;48.722;8.736;2023-01-15T09:29:50;0.85;;;0.50;;
10458;SDS011;5277;48.722;8.736;2023-01-15T09:32:16;1.02;;;0.52;;
10458;SDS011;5277;48.722;8.736;2023-01-15T09:34:42;0.95;;;0.60;;
10458;SDS011;5277;48.722;8.736;2023-01-15T09:37:07;0.52;;;0.50;;
10458;SDS011;5277;48.722;8.736;2023-01-15T09:39:33;2.60;;;0.50;;
10458;SDS011;5277;48.722;8.736;2023-01-15T09:42:08;0.70;;;0.50;;
10458;SDS011;5277;48.722;8.736;2023-01-15T09:50:27;0.30;;;0.30;;
10458;SDS011;5277;48.722;8.736;2023-01-15T09:56:23;1.27;;;0.30;;
10458;SDS011;5277;48.722;8.736;2023-01-15T09:58:51;0.50;;;0.40;;
10458;SDS011;5277;48.722;8.736;2023-01-15T10:01:20;1.53;;;0.60;;
10458;SDS011;5277;48.722;8.736;2023-01-15T10:04:05;0.68;;;0.60;;
10458;SDS011;5277;48.722;8.736;2023-01-15T10:06:48;1.27;;;0.50;;
10458;SDS011;5277;48.722;8.736;2023-01-15T10:09:21;1.63;;;0.70;;
10458;SDS011;5277;48.722;8.736;2023-01-15T10:11:54;1.07;;;0.73;;
10458;SDS011;5277;48.722;8.736;2023-01-15T10:17:41;1.43;;;0.60;;
10458;SDS011;5277;48.722;8.736;2023-01-15T10:20:46;1.20;;;0.80;;
10458;SDS011;5277;48.722;8.736;2023-01-15T10:23:07;0.87;;;0.77;;
10458;SDS011;5277;48.722;8.736;2023-01-15T10:25:50;0.80;;;0.50;;
10458;SDS011;5277;48.722;8.736;2023-01-15T10:28:26;2.10;;;0.70;;
10458;SDS011;5277;48.722;8.736;2023-01-15T10:30:55;2.40;;;0.90;;
10458;SDS011;5277;48.722;8.736;2023-01-15T10:36:16;2.90;;;0.80;;
10458;SDS011;5277;48.722;8.736;2023-01-15T10:47:31;1.50;;;1.00;;
10458;SDS011;5277;48.722;8.736;2023-01-15T10:50:22;2.17;;;1.20;;
10458;SDS011;5277;48.722;8.736;2023-01-15T10:52:50;2.87;;;1.70;;
10458;SDS011;5277;48.722;8.736;2023-01-15T10:55:44;2.30;;;1.20;;
10458;SDS011;5277;48.722;8.736;2023-01-15T11:01:05;5.17;;;2.20;;
10458;SDS011;5277;48.722;8.736;2023-01-15T11:03:38;0.30;;;0.30;;
10458;SDS011;5277;48.722;8.736;2023-01-15T11:06:07;0.20;;;0.13;;
10458;SDS011;5277;48.722;8.736;2023-01-15T11:08:39;1.87;;;0.97;;
10458;SDS011;5277;48.722;8.736;2023-01-15T11:11:51;0.60;;;0.40;;
10458;SDS011;5277;48.722;8.736;2023-01-15T11:14:30;0.30;;;0.20;;
10458;SDS011;5277;48.722;8.736;2023-01-15T11:17:27;0.70;;;0.23;;
10458;SDS011;5277;48.722;8.736;2023-01-15T11:20:28;0.57;;;0.37;;
10458;SDS011;5277;48.722;8.736;2023-01-15T11:25:59;0.20;;;0.20;;
10458;SDS011;5277;48.722;8.736;2023-01-15T11:28:29;0.30;;;0.20;;
10458;SDS011;5277;48.722;8.736;2023-01-15T11:31:00;0.23;;;0.20;;
10458;SDS011;5277;48.722;8.736;2023-01-15T11:33:27;0.30;;;0.30;;
10458;SDS011;5277;48.722;8.736;2023-01-15T11:35:55;1.60;;;0.47;;
10458;SDS011;5277;48.722;8.736;2023-01-15T11:38:26;1.33;;;0.90;;
10458;SDS011;5277;48.722;8.736;2023-01-15T11:41:01;0.50;;;0.30;;
10458;SDS011;5277;48.722;8.736;2023-01-15T11:43:29;2.20;;;0.57;;
10458;SDS011;5277;48.722;8.736;2023-01-15T11:49:10;0.60;;;0.50;;
10458;SDS011;5277;48.722;8.736;2023-01-15T11:51:57;0.93;;;0.53;;
10458;SDS011;5277;48.722;8.736;2023-01-15T11:54:25;0.30;;;0.30;;
10458;SDS011;5277;48.722;8.736;2023-01-15T11:56:51;1.30;;;0.70;;
10458;SDS011;5277;48.722;8.736;2023-01-15T11:59:18;2.20;;;0.50;;
10458;SDS011;5277;48.722;8.736;2023-01-15T12:04:26;0.60;;;0.57;;
10458;SDS011;5277;48.722;8.736;2023-01-15T12:06:53;1.07;;;0.50;;
10458;SDS011;5277;48.722;8.736;2023-01-15T12:12:02;1.43;;;0.70;;
10458;SDS011;5277;48.722;8.736;2023-01-15T12:20:20;2.03;;;0.73;;
10458;SDS011;5277;48.722;8.736;2023-01-15T12:23:02;1.13;;;0.57;;
10458;SDS011;5277;48.722;8.736;2023-01-15T12:28:35;2.07;;;0.80;;
10458;SDS011;5277;48.722;8.736;2023-01-15T12:33:36;2.57;;;0.87;;
10458;SDS011;5277;48.722;8.736;2023-01-15T12:41:58;0.80;;;0.60;;
10458;SDS011;5277;48.722;8.736;2023-01-15T12:44:46;1.60;;;0.80;;
10458;SDS011;5277;48.722;8.736;2023-01-15T12:49:58;3.07;;;1.10;;
10458;SDS011;5277;48.722;8.736;2023-01-15T12:52:38;1.73;;;0.93;;
10458;SDS011;5277;48.722;8.736;2023-01-15T12:57:48;1.87;;;0.83;;
10458;SDS011;5277;48.722;8.736;2023-01-15T13:00:20;2.40;;;1.10;;
10458;SDS011;5277;48.722;8.736;2023-01-15T13:03:14;3.60;;;1.20;;
10458;SDS011;5277;48.722;8.736;2023-01-15T13:06:07;3.30;;;1.50;;
10458;SDS011;5277;48.722;8.736;2023-01-15T13:08:46;4.47;;;1.33;;
10458;SDS011;5277;48.722;8.736;2023-01-15T13:11:20;5.37;;;1.80;;
10458;SDS011;5277;48.722;8.736;2023-01-15T13:13:46;23.90;;;1.60;;
10458;SDS011;5277;48.722;8.736;2023-01-15T13:22:00;6.47;;;3.70;;
10458;SDS011;5277;48.722;8.736;2023-01-15T13:24:39;5.47;;;2.00;;
10458;SDS011;5277;48.722;8.736;2023-01-15T13:27:40;5.57;;;2.23;;
10458;SDS011;5277;48.722;8.736;2023-01-15T13:33:17;5.17;;;1.03;;
10458;SDS011;5277;48.722;8.736;2023-01-15T13:35:46;2.57;;;1.37;;
10458;SDS011;5277;48.722;8.736;2023-01-15T13:38:15;4.80;;;1.70;;
10458;SDS011;5277;48.722;8.736;2023-01-15T13:40:46;2.70;;;0.73;;
10458;SDS011;5277;48.722;8.736;2023-01-15T13:45:52;2.03;;;1.00;;
10458;SDS011;5277;48.722;8.736;2023-01-15T13:48:26;2.73;;;1.07;;
10458;SDS011;5277;48.722;8.736;2023-01-15T13:51:00;3.90;;;1.17;;
10458;SDS011;5277;48.722;8.736;2023-01-15T13:53:29;7.20;;;1.50;;
10458;SDS011;5277;48.722;8.736;2023-01-15T13:58:32;3.63;;;0.70;;
10458;SDS011;5277;48.722;8.736;2023-01-15T14:01:22;4.10;;;1.70;;
10458;SDS011;5277;48.722;8.736;2023-01-15T14:06:43;2.97;;;0.87;;
10458;SDS011;5277;48.722;8.736;2023-01-15T14:09:11;7.33;;;2.57;;
10458;SDS011;5277;48.722;8.736;2023-01-15T14:11:40;3.10;;;1.00;;
10458;SDS011;5277;48.722;8.736;2023-01-15T14:14:39;3.20;;;1.00;;
10458;SDS011;5277;48.722;8.736;2023-01-15T14:17:26;6.53;;;1.47;;
10458;SDS011;5277;48.722;8.736;2023-01-15T14:25:50;4.57;;;1.80;;
10458;SDS011;5277;48.722;8.736;2023-01-15T14:28:50;3.67;;;1.07;;
10458;SDS011;5277;48.722;8.736;2023-01-15T14:34:23;3.03;;;0.93;;
10458;SDS011;5277;48.722;8.736;2023-01-15T14:36:57;2.07;;;0.87;;
10458;SDS011;5277;48.722;8.736;2023-01-15T14:39:43;3.17;;;1.00;;
10458;SDS011;5277;48.722;8.736;2023-01-15T14:45:06;2.33;;;1.00;;
10458;SDS011;5277;48.722;8.736;2023-01-15T14:47:48;5.43;;;1.07;;
10458;SDS011;5277;48.722;8.736;2023-01-15T14:52:57;2.40;;;1.10;;
10458;SDS011;5277;48.722;8.736;2023-01-15T14:55:26;3.90;;;1.40;;
10458;SDS011;5277;48.722;8.736;2023-01-15T14:57:54;6.27;;;1.60;;
10458;SDS011;5277;48.722;8.736;2023-01-15T15:00:21;4.80;;;1.20;;
10458;SDS011;5277;48.722;8.736;2023-01-15T15:02:53;2.77;;;1.17;;
10458;SDS011;5277;48.722;8.736;2023-01-15T15:05:20;2.00;;;1.13;;
10458;SDS011;5277;48.722;8.736;2023-01-15T15:07:49;3.27;;;1.20;;
10458;SDS011;5277;48.722;8.736;2023-01-15T15:10:20;2.50;;;1.00;;
10458;SDS011;5277;48.722;8.736;2023-01-15T15:18:33;2.03;;;1.20;;
10458;SDS011;5277;48.722;8.736;2023-01-15T15:21:06;4.77;;;1.50;;
10458;SDS011;5277;48.722;8.736;2023-01-15T15:23:38;2.50;;;1.40;;
10458;SDS011;5277;48.722;8.736;2023-01-15T15:29:00;4.43;;;1.30;;
10458;SDS011;5277;48.722;8.736;2023-01-15T15:31:36;3.90;;;1.30;;
10458;SDS011;5277;48.722;8.736;2023-01-15T15:34:05;2.63;;;1.60;;
10458;SDS011;5277;48.722;8.736;2023-01-15T15:36:36;2.70;;;1.40;;
10458;SDS011;5277;48.722;8.736;2023-01-15T15:39:03;8.77;;;1.43;;
10458;SDS011;5277;48.722;8.736;2023-01-15T15:41:48;3.30;;;1.30;;
10458;SDS011;5277;48.722;8.736;2023-01-15T15:44:40;5.50;;;1.00;;
10458;SDS011;5277;48.722;8.736;2023-01-15T15:47:34;3.27;;;1.40;;
10458;SDS011;5277;48.722;8.736;2023-01-15T15:50:25;2.63;;;1.23;;
10458;SDS011;5277;48.722;8.736;2023-01-15T15:52:54;5.47;;;1.60;;
10458;SDS011;5277;48.722;8.736;2023-01-15T15:55:22;2.10;;;1.43;;
10458;SDS011;5277;48.722;8.736;2023-01-15T15:57:51;3.17;;;1.50;;
10458;SDS011;5277;48.722;8.736;2023-01-15T16:00:27;2.47;;;1.30;;
10458;SDS011;5277;48.722;8.736;2023-01-15T16:02:57;4.20;;;1.50;;
10458;SDS011;5277;48.722;8.736;2023-01-15T16:05:29;4.13;;;1.40;;
10458;SDS011;5277;48.722;8.736;2023-01-15T16:08:06;4.63;;;1.50;;
10458;SDS011;5277;48.722;8.736;2023-01-15T16:10:42;2.90;;;1.30;;
10458;SDS011;5277;48.722;8.736;2023-01-15T16:13:33;3.50;;;1.40;;
10458;SDS011;5277;48.722;8.736;2023-01-15T16:16:02;5.60;;;1.47;;
10458;SDS011;5277;48.722;8.736;2023-01-15T16:18:33;2.33;;;1.10;;
10458;SDS011;5277;48.722;8.736;2023-01-15T16:21:04;5.43;;;1.20;;
10458;SDS011;5277;48.722;8.736;2023-01-15T16:23:32;3.47;;;1.20;;
10458;SDS011;5277;48.722;8.736;2023-01-15T16:26:07;3.37;;;1.07;;
10458;SDS011;5277;48.722;8.736;2023-01-15T16:28:42;3.60;;;1.07;;
10458;SDS011;5277;48.722;8.736;2023-01-15T16:31:11;3.80;;;1.30;;
10458;SDS011;5277;48.722;8.736;2023-01-15T16:33:40;2.40;;;1.20;;
10458;SDS011;5277;48.722;8.736;2023-01-15T16:36:06;5.60;;;1.33;;
10458;SDS011;5277;48.722;8.736;2023-01-15T16:38:38;4.20;;;1.73;;
10458;SDS011;5277;48.722;8.736;2023-01-15T16:41:05;1.83;;;1.30;;
10458;SDS011;5277;48.722;8.736;2023-01-15T16:43:31;5.33;;;1.93;;
10458;SDS011;5277;48.722;8.736;2023-01-15T16:46:16;4.73;;;1.80;;
10458;SDS011;5277;48.722;8.736;2023-01-15T16:48:44;2.77;;;1.77;;
10458;SDS011;5277;48.722;8.736;2023-01-15T16:51:22;3.23;;;1.60;;
10458;SDS011;5277;48.722;8.736;2023-01-15T16:54:11;5.87;;;1.57;;
10458;SDS011;5277;48.722;8.736;2023-01-15T16:56:55;4.67;;;1.50;;
10458;SDS011;5277;48.722;8.736;2023-01-15T17:02:12;2.43;;;1.37;;
10458;SDS011;5277;48.722;8.736;2023-01-15T17:04:40;6.03;;;1.67;;
10458;SDS011;5277;48.722;8.736;2023-01-15T17:09:47;2.43;;;1.33;;
10458;SDS011;5277;48.722;8.736;2023-01-15T17:14:54;4.37;;;1.90;;
10458;SDS011;5277;48.722;8.736;2023-01-15T17:17:47;3.47;;;1.90;;
10458;SDS011;5277;48.722;8.736;2023-01-15T17:20:14;4.20;;;1.63;;
10458;SDS011;5277;48.722;8.736;2023-01-15T17:22:42;6.43;;;1.70;;
10458;SDS011;5277;48.722;8.736;2023-01-15T17:27:51;4.40;;;2.00;;
10458;SDS011;5277;48.722;8.736;2023-01-15T17:30:18;10.20;;;2.00;;
10458;SDS011;5277;48.722;8.736;2023-01-15T17:32:44;5.70;;;2.23;;
10458;SDS011;5277;48.722;8.736;2023-01-15T17:35:20;6.20;;;2.43;;
10458;SDS011;5277;48.722;8.736;2023-01-15T17:37:49;6.30;;;2.70;;
10458;SDS011;5277;48.722;8.736;2023-01-15T17:40:14;5.43;;;2.40;;
10458;SDS011;5277;48.722;8.736;2023-01-15T17:42:40;5.40;;;3.00;;
10458;SDS011;5277;48.722;8.736;2023-01-15T17:45:06;4.00;;;2.50;;
10458;SDS011;5277;48.722;8.736;2023-01-15T17:47:39;4.50;;;2.50;;
10458;SDS011;5277;48.722;8.736;2023-01-15T17:50:05;7.43;;;2.60;;